Time;durP1;ratioP1;P1;durP2;ratioP2;P2;SDS_P1;SDS_P2;PMS_P1;PMS_P2;Temp;Humidity;BMP_temperature;BMP_pressure;BME280_temperature;BME280_humidity;BME280_pressure;Samples;Min_cycle;Max_cycle;Signal;HPM_P1;HPM_P2
2023/01/26 00:01:30;;;;;;;94.72;35.60;;;-1.90;99.90;;;;;;15197599;23;20026;-36
2023/01/26 00:07:32;;;;;;;89.72;32.85;;;-1.90;99.90;;;;;;15201052;23;20045;-37
2023/01/26 00:13:35;;;;;;;91.22;34.03;;;-1.80;99.90;;;;;;15192528;23;20022;-36
2023/01/26 00:19:36;;;;;;;102.88;35.42;;;-1.90;99.90;;;;;;15202981;23;20351;-36
2023/01/26 00:25:41;;;;;;;94.35;35.92;;;-1.90;99.90;;;;;;15199386;23;20057;-37
2023/01/26 00:31:43;;;;;;;93.22;36.22;;;-1.90;99.90;;;;;;15200169;23;20120;-37
2023/01/26 00:37:45;;;;;;;97.53;34.35;;;-1.70;99.90;;;;;;15194928;23;20026;-36
2023/01/26 00:43:46;;;;;;;99.97;37.08;;;-1.80;99.90;;;;;;15177302;23;20030;-36
2023/01/26 00:49:48;;;;;;;96.35;35.92;;;-1.80;99.90;;;;;;15149276;23;20109;-37
2023/01/26 00:55:54;;;;;;;94.05;35.55;;;-1.80;99.90;;;;;;15164404;23;20477;-37
2023/01/26 01:01:57;;;;;;;90.40;35.58;;;-1.80;99.90;;;;;;15175722;23;20061;-37
2023/01/26 01:07:59;;;;;;;91.50;34.72;;;-1.80;99.90;;;;;;15163672;23;20108;-36
2023/01/26 01:14:01;;;;;;;98.40;35.85;;;-1.90;99.90;;;;;;15147292;23;20070;-36
2023/01/26 01:20:06;;;;;;;93.10;34.30;;;-1.80;99.90;;;;;;15139933;23;20029;-36
2023/01/26 01:26:08;;;;;;;102.93;37.45;;;-1.80;99.90;;;;;;15169977;23;20032;-36
2023/01/26 01:32:10;;;;;;;102.13;36.90;;;-1.80;99.90;;;;;;15170671;23;20702;-37
2023/01/26 01:38:12;;;;;;;89.35;34.28;;;-1.80;99.90;;;;;;15178425;23;20028;-36
2023/01/26 01:44:17;;;;;;;100.85;36.25;;;-1.70;99.90;;;;;;15174335;23;20073;-36
2023/01/26 01:50:20;;;;;;;98.88;37.38;;;-1.70;99.90;;;;;;15200001;23;20022;-37
2023/01/26 01:56:25;;;;;;;104.63;37.35;;;-1.60;99.90;;;;;;15203614;23;20022;-36
2023/01/26 02:02:27;;;;;;;94.18;35.67;;;-1.60;99.90;;;;;;15206986;23;20026;-36
2023/01/26 02:08:43;;;;;;;94.32;36.65;;;-1.50;99.90;;;;;;15204558;23;20042;-36
2023/01/26 02:14:46;;;;;;;98.55;38.47;;;-1.50;99.90;;;;;;15200703;23;20026;-36
2023/01/26 02:21:05;;;;;;;98.63;37.03;;;-1.60;99.90;;;;;;15202930;23;20112;-36
2023/01/26 02:27:07;;;;;;;99.20;37.13;;;-1.50;99.90;;;;;;15202353;23;20029;-36
2023/01/26 02:33:25;;;;;;;94.72;36.22;;;-1.50;99.90;;;;;;15200868;23;20022;-37
2023/01/26 02:39:42;;;;;;;99.07;34.95;;;-1.50;99.90;;;;;;15200060;23;20022;-37
2023/01/26 02:45:44;;;;;;;103.85;35.05;;;-1.50;99.90;;;;;;15159608;23;20038;-36
2023/01/26 02:51:46;;;;;;;96.45;33.80;;;-1.50;99.90;;;;;;15177154;23;20057;-36
2023/01/26 02:57:49;;;;;;;97.30;34.95;;;-1.50;99.90;;;;;;15178240;23;20026;-36
2023/01/26 03:03:51;;;;;;;105.97;35.50;;;-1.50;99.90;;;;;;15180424;23;20022;-36
2023/01/26 03:09:53;;;;;;;97.97;35.35;;;-1.50;99.90;;;;;;15150902;23;20108;-36
2023/01/26 03:16:01;;;;;;;89.13;33.10;;;-1.50;99.90;;;;;;15172886;23;20026;-36
2023/01/26 03:28:24;;;;;;;96.50;34.72;;;-1.30;99.90;;;;;;15171490;23;20025;-37
2023/01/26 03:34:28;;;;;;;93.05;34.70;;;-1.30;99.90;;;;;;15166181;23;20451;-36
2023/01/26 03:59:40;;;;;;;102.93;32.90;;;-1.40;99.90;;;;;;15202582;23;20033;-36
2023/01/26 04:12:17;;;;;;;96.03;32.87;;;-1.40;99.90;;;;;;15130611;23;20097;-36
2023/01/26 04:24:39;;;;;;;96.60;33.63;;;-1.30;99.90;;;;;;15129735;23;20117;-37
2023/01/26 04:30:41;;;;;;;91.13;31.88;;;-1.30;99.90;;;;;;15129359;23;20356;-36
2023/01/26 04:36:43;;;;;;;94.93;30.58;;;-1.30;99.90;;;;;;15131773;23;20031;-37
2023/01/26 04:42:45;;;;;;;84.32;31.40;;;-1.30;99.90;;;;;;15114011;23;20033;-36
2023/01/26 04:48:47;;;;;;;93.70;30.92;;;-1.40;99.90;;;;;;15106846;23;20057;-35
2023/01/26 04:54:49;;;;;;;92.20;30.63;;;-1.40;99.90;;;;;;15105002;23;20034;-36
2023/01/26 05:00:53;;;;;;;87.72;28.40;;;-1.50;99.90;;;;;;15091425;23;20022;-36
2023/01/26 05:06:55;;;;;;;92.23;31.50;;;-1.50;99.90;;;;;;15172208;23;20053;-36
2023/01/26 05:12:58;;;;;;;94.10;29.27;;;-1.50;99.90;;;;;;15177245;23;20101;-37
2023/01/26 05:19:00;;;;;;;91.20;29.85;;;-1.50;99.90;;;;;;15173364;23;20166;-37
2023/01/26 05:25:02;;;;;;;101.82;30.95;;;-1.60;99.90;;;;;;15180481;23;20033;-36
2023/01/26 05:31:04;;;;;;;102.60;31.20;;;-1.50;99.90;;;;;;15181874;23;20152;-36
2023/01/26 05:37:06;;;;;;;84.43;29.40;;;-1.40;99.90;;;;;;15197312;23;20021;-37
2023/01/26 05:43:09;;;;;;;92.68;31.10;;;-1.40;99.90;;;;;;15201819;23;20026;-37
2023/01/26 05:49:11;;;;;;;93.18;30.83;;;-1.40;99.90;;;;;;15202574;23;20045;-37
2023/01/26 05:55:13;;;;;;;91.50;28.92;;;-1.40;99.90;;;;;;15203828;23;20209;-37
2023/01/26 06:01:15;;;;;;;90.97;29.67;;;-1.40;99.90;;;;;;15204423;23;20065;-35
2023/01/26 06:07:17;;;;;;;89.30;29.42;;;-1.40;99.90;;;;;;15176398;23;20057;-35
2023/01/26 06:13:19;;;;;;;89.13;29.30;;;-1.30;99.90;;;;;;15195878;23;20022;-36
2023/01/26 06:19:21;;;;;;;86.65;29.60;;;-1.40;99.90;;;;;;15199373;23;20100;-36
2023/01/26 06:25:23;;;;;;;92.40;29.55;;;-1.40;99.90;;;;;;15197870;23;20030;-36
2023/01/26 06:31:28;;;;;;;84.45;29.20;;;-1.30;99.90;;;;;;15205952;23;20029;-37
2023/01/26 06:37:30;;;;;;;84.25;26.67;;;-1.30;99.90;;;;;;15177950;23;20444;-36
2023/01/26 06:43:33;;;;;;;87.20;29.13;;;-1.30;99.90;;;;;;15177590;23;20569;-36
2023/01/26 06:49:35;;;;;;;86.37;28.57;;;-1.30;99.90;;;;;;15176472;23;20434;-37
2023/01/26 06:55:40;;;;;;;79.65;27.58;;;-1.40;99.90;;;;;;15173819;23;20026;-36
2023/01/26 07:01:46;;;;;;;86.20;28.45;;;-1.30;99.90;;;;;;15177904;23;20029;-37
2023/01/26 07:07:48;;;;;;;95.60;28.73;;;-1.30;99.90;;;;;;15163897;23;20030;-36
2023/01/26 07:13:50;;;;;;;80.68;27.67;;;-1.30;99.90;;;;;;15176632;23;20057;-36
2023/01/26 07:19:51;;;;;;;83.05;26.73;;;-1.30;99.90;;;;;;15171393;23;20065;-37
2023/01/26 07:25:53;;;;;;;83.22;27.33;;;-1.30;99.90;;;;;;15171034;23;20029;-37
2023/01/26 07:31:55;;;;;;;81.45;28.90;;;-1.20;99.90;;;;;;15178711;23;20612;-36
2023/01/26 07:37:57;;;;;;;81.15;27.40;;;-1.10;99.90;;;;;;15187744;23;20022;-37
2023/01/26 07:43:59;;;;;;;75.43;26.33;;;-1.10;99.90;;;;;;15202124;23;20030;-36
2023/01/26 07:50:02;;;;;;;77.18;26.65;;;-1.10;99.90;;;;;;15196424;23;20061;-37
2023/01/26 07:56:12;;;;;;;72.30;24.77;;;-1.00;99.90;;;;;;15197287;23;20502;-36
2023/01/26 08:02:14;;;;;;;80.93;27.52;;;-1.00;99.90;;;;;;15200148;23;20374;-36
2023/01/26 08:08:16;;;;;;;74.05;26.35;;;-0.90;99.90;;;;;;15191651;23;20169;-36
2023/01/26 08:14:18;;;;;;;76.75;25.88;;;-0.90;99.90;;;;;;15199872;23;20058;-37
2023/01/26 08:20:20;;;;;;;90.40;28.63;;;-0.90;99.90;;;;;;15200964;23;20097;-37
2023/01/26 08:26:22;;;;;;;84.35;28.40;;;-0.90;99.90;;;;;;15189038;23;20022;-37
2023/01/26 08:32:24;;;;;;;82.85;28.75;;;-0.90;99.90;;;;;;15197941;23;20134;-37
2023/01/26 08:38:28;;;;;;;86.43;29.60;;;-0.80;99.90;;;;;;15200552;23;20108;-37
2023/01/26 08:44:30;;;;;;;81.35;27.63;;;-0.70;99.90;;;;;;15199474;23;20399;-36
2023/01/26 08:50:32;;;;;;;77.63;25.40;;;-0.70;99.90;;;;;;15194279;23;20417;-36
2023/01/26 08:56:34;;;;;;;71.97;24.83;;;-0.70;99.90;;;;;;15199348;23;20069;-37
2023/01/26 09:02:36;;;;;;;80.65;27.10;;;-0.70;99.90;;;;;;15200038;23;20106;-36
2023/01/26 09:08:38;;;;;;;75.20;25.10;;;-0.60;99.90;;;;;;15175820;23;20057;-37
2023/01/26 09:14:40;;;;;;;80.07;26.45;;;-0.60;99.90;;;;;;15176744;23;20032;-36
2023/01/26 09:20:43;;;;;;;72.50;25.08;;;-0.60;99.90;;;;;;15170799;23;20029;-37
2023/01/26 09:26:45;;;;;;;73.47;26.48;;;-0.50;99.90;;;;;;15175760;23;20510;-37
2023/01/26 09:32:46;;;;;;;74.13;23.80;;;-0.40;99.90;;;;;;15181651;23;20112;-37
2023/01/26 09:38:50;;;;;;;66.88;23.85;;;-0.40;99.90;;;;;;15188119;23;20022;-36
2023/01/26 09:44:58;;;;;;;69.07;23.50;;;-0.30;99.90;;;;;;15200627;23;20030;-37
2023/01/26 09:51:10;;;;;;;68.32;21.90;;;-0.20;99.90;;;;;;15197731;23;20547;-37
2023/01/26 09:57:25;;;;;;;74.70;22.95;;;-0.30;99.90;;;;;;15200794;23;20029;-36
2023/01/26 10:03:46;;;;;;;64.35;21.27;;;-0.20;99.90;;;;;;15199913;23;20030;-37
2023/01/26 10:09:51;;;;;;;70.90;24.00;;;-0.20;99.90;;;;;;15175682;23;20029;-36
2023/01/26 10:16:00;;;;;;;65.35;21.60;;;-0.30;99.90;;;;;;15203790;23;20336;-36
2023/01/26 10:22:35;;;;;;;63.53;22.33;;;-0.30;99.90;;;;;;15203599;23;20018;-37
2023/01/26 10:28:40;;;;;;;62.63;21.45;;;-0.30;99.90;;;;;;15171815;23;20033;-37
2023/01/26 10:34:48;;;;;;;57.27;18.87;;;-0.20;99.90;;;;;;15177645;23;20113;-37
2023/01/26 10:40:50;;;;;;;70.93;21.45;;;-0.20;99.90;;;;;;15194546;23;20084;-37
2023/01/26 10:47:22;;;;;;;66.43;21.45;;;-0.20;99.90;;;;;;15186906;23;20406;-37
2023/01/26 10:53:28;;;;;;;65.70;21.13;;;-0.10;99.90;;;;;;15152762;23;20032;-37
2023/01/26 10:59:57;;;;;;;57.58;18.70;;;-0.10;99.90;;;;;;15184232;23;20022;-37
2023/01/26 11:06:28;;;;;;;52.63;18.35;;;-0.10;99.90;;;;;;15162534;23;20026;-37
2023/01/26 11:12:30;;;;;;;51.08;18.33;;;0.10;99.90;;;;;;15177037;23;20030;-37
2023/01/26 11:18:54;;;;;;;51.63;18.05;;;0.30;99.90;;;;;;15154143;23;20018;-37
2023/01/26 11:25:11;;;;;;;50.22;17.40;;;0.30;99.90;;;;;;15175036;23;20030;-37
2023/01/26 11:31:29;;;;;;;47.22;16.83;;;0.20;99.90;;;;;;15175659;23;20030;-37
2023/01/26 11:37:47;;;;;;;45.97;17.70;;;0.10;99.90;;;;;;15183147;23;20451;-37
2023/01/26 11:44:11;;;;;;;46.13;18.27;;;0.20;99.90;;;;;;15202571;23;20030;-36
2023/01/26 11:50:35;;;;;;;53.70;19.73;;;0.20;99.90;;;;;;15201085;23;20393;-37
2023/01/26 11:56:48;;;;;;;47.45;17.75;;;0.30;99.90;;;;;;15199230;23;20022;-37
2023/01/26 12:03:01;;;;;;;45.63;16.10;;;0.30;99.90;;;;;;15199209;23;20108;-37
2023/01/26 12:09:20;;;;;;;45.45;16.75;;;0.30;99.90;;;;;;15202565;23;20040;-37
2023/01/26 12:15:28;;;;;;;41.17;16.30;;;0.30;99.90;;;;;;15198834;23;20030;-37
2023/01/26 12:21:34;;;;;;;40.05;15.55;;;0.30;99.90;;;;;;15202755;23;20570;-37
2023/01/26 12:27:43;;;;;;;42.38;16.63;;;0.30;99.90;;;;;;15203533;23;20120;-37
2023/01/26 12:33:49;;;;;;;39.55;15.80;;;0.40;99.90;;;;;;15200513;23;20026;-37
2023/01/26 12:40:05;;;;;;;36.60;14.15;;;0.40;99.90;;;;;;15192583;23;20025;-36
2023/01/26 12:46:09;;;;;;;37.88;14.32;;;0.40;99.90;;;;;;15185718;23;20022;-37
2023/01/26 12:52:55;;;;;;;34.90;13.10;;;0.50;99.90;;;;;;15175234;23;20768;-37
2023/01/26 12:59:02;;;;;;;36.28;13.30;;;0.50;99.90;;;;;;15150549;23;20156;-37
2023/01/26 13:05:06;;;;;;;34.88;13.30;;;0.50;99.90;;;;;;15187610;23;20359;-37
2023/01/26 13:11:09;;;;;;;31.67;13.03;;;0.50;99.90;;;;;;15170692;23;20028;-37
2023/01/26 13:17:14;;;;;;;33.55;13.13;;;0.60;99.90;;;;;;15202489;23;20018;-37
2023/01/26 13:23:36;;;;;;;30.85;12.70;;;0.50;99.90;;;;;;15202470;23;20427;-37
2023/01/26 13:29:54;;;;;;;30.25;12.40;;;0.60;99.90;;;;;;15201243;23;20029;-38
2023/01/26 13:35:57;;;;;;;27.65;11.23;;;0.50;99.90;;;;;;15175704;23;20033;-37
2023/01/26 13:41:59;;;;;;;32.28;10.60;;;0.60;99.90;;;;;;15196670;23;20463;-37
2023/01/26 13:48:08;;;;;;;30.45;11.95;;;0.60;99.90;;;;;;15198867;23;20026;-37
2023/01/26 13:54:13;;;;;;;24.45;10.55;;;0.60;99.90;;;;;;15199866;23;20026;-37
2023/01/26 14:00:15;;;;;;;31.15;12.00;;;0.60;99.90;;;;;;15203701;23;20057;-37
2023/01/26 14:06:21;;;;;;;29.65;11.15;;;0.60;99.90;;;;;;15123113;23;20085;-37
2023/01/26 14:12:42;;;;;;;23.98;9.25;;;0.60;99.90;;;;;;15136280;23;20022;-37
2023/01/26 14:18:47;;;;;;;23.38;9.68;;;0.60;99.90;;;;;;15132514;23;20470;-37
2023/01/26 14:24:51;;;;;;;32.25;11.82;;;0.60;99.90;;;;;;15131923;23;20348;-37
2023/01/26 14:31:02;;;;;;;31.85;13.23;;;0.50;99.90;;;;;;15134862;23;20097;-37
2023/01/26 14:37:13;;;;;;;30.40;11.63;;;0.50;99.90;;;;;;15134388;23;20082;-37
2023/01/26 14:43:16;;;;;;;34.15;10.57;;;0.50;99.90;;;;;;15133534;23;20363;-37
2023/01/26 14:49:27;;;;;;;28.67;9.85;;;0.50;99.90;;;;;;15131847;23;20022;-37
2023/01/26 14:55:32;;;;;;;31.52;8.93;;;0.50;99.90;;;;;;15130214;23;20022;-37
2023/01/26 15:01:34;;;;;;;37.03;10.05;;;0.60;99.90;;;;;;15137377;23;20463;-36
2023/01/26 15:07:40;;;;;;;52.65;10.68;;;0.60;99.90;;;;;;15201432;23;20040;-37
2023/01/26 15:13:45;;;;;;;43.58;11.15;;;0.60;99.90;;;;;;15204582;23;20116;-37
2023/01/26 15:19:47;;;;;;;55.42;9.80;;;0.60;99.90;;;;;;15202367;23;20104;-37
2023/01/26 15:25:53;;;;;;;69.82;12.60;;;0.70;99.90;;;;;;15204723;23;20030;-37
2023/01/26 15:31:56;;;;;;;86.00;12.60;;;0.60;99.90;;;;;;15203750;23;20030;-37
2023/01/26 15:37:59;;;;;;;61.40;11.57;;;0.70;99.90;;;;;;15204309;23;20018;-37
2023/01/26 15:44:01;;;;;;;56.28;10.57;;;0.70;99.90;;;;;;15154191;23;20493;-37
2023/01/26 15:50:03;;;;;;;72.85;10.30;;;0.70;99.90;;;;;;15201723;23;20463;-37
2023/01/26 15:56:14;;;;;;;55.80;10.25;;;0.70;99.90;;;;;;15199344;23;20330;-37
2023/01/26 16:02:18;;;;;;;39.25;10.25;;;0.60;99.90;;;;;;15178390;23;20036;-37
2023/01/26 16:08:21;;;;;;;33.38;10.73;;;0.70;99.90;;;;;;15201664;23;20104;-37
2023/01/26 16:14:23;;;;;;;39.97;10.65;;;0.70;99.90;;;;;;15201540;23;20101;-37
2023/01/26 16:20:24;;;;;;;58.90;10.70;;;0.80;99.90;;;;;;15202234;23;20085;-37
2023/01/26 16:26:28;;;;;;;45.20;11.95;;;0.70;99.90;;;;;;15198569;23;20033;-38
2023/01/26 16:32:29;;;;;;;86.47;13.90;;;0.80;99.90;;;;;;15203442;23;20036;-37
2023/01/26 16:38:31;;;;;;;105.60;21.00;;;0.80;99.90;;;;;;15201082;23;20026;-37
2023/01/26 16:44:33;;;;;;;70.85;16.73;;;0.80;99.90;;;;;;15200307;23;20375;-37
2023/01/26 16:50:35;;;;;;;75.60;14.23;;;0.70;99.90;;;;;;15198729;23;20033;-37
2023/01/26 16:56:37;;;;;;;110.13;17.88;;;0.80;99.90;;;;;;15195684;23;20022;-37
2023/01/26 17:02:41;;;;;;;79.28;17.02;;;0.80;99.90;;;;;;15170688;23;20077;-37
2023/01/26 17:08:44;;;;;;;83.38;16.00;;;0.80;99.90;;;;;;15199757;23;20117;-37
2023/01/26 17:14:45;;;;;;;100.20;15.60;;;0.80;99.90;;;;;;15200582;23;20391;-37
2023/01/26 17:20:47;;;;;;;82.85;16.95;;;0.80;99.90;;;;;;15202220;23;20024;-37
2023/01/26 17:26:49;;;;;;;74.63;16.60;;;0.80;99.90;;;;;;15199958;23;20108;-37
2023/01/26 17:32:51;;;;;;;72.20;16.73;;;0.90;99.90;;;;;;15206198;23;20022;-37
2023/01/26 17:38:53;;;;;;;112.15;19.20;;;0.90;99.90;;;;;;15180006;23;20026;-37
2023/01/26 17:44:56;;;;;;;89.60;17.48;;;0.90;99.90;;;;;;15203655;23;20041;-37
2023/01/26 17:50:58;;;;;;;76.28;15.75;;;0.90;99.90;;;;;;15204178;23;20034;-37
2023/01/26 17:57:00;;;;;;;83.07;16.73;;;0.90;99.90;;;;;;15176527;23;20097;-37
2023/01/26 18:03:02;;;;;;;78.65;15.77;;;0.90;99.90;;;;;;15204877;23;20058;-37
2023/01/26 18:09:05;;;;;;;79.10;15.90;;;1.00;99.90;;;;;;15201790;23;20029;-37
2023/01/26 18:15:07;;;;;;;101.32;17.15;;;1.10;99.90;;;;;;15201918;23;20017;-37
2023/01/26 18:21:21;;;;;;;133.13;18.23;;;1.10;99.90;;;;;;15205624;23;20018;-37
2023/01/26 18:27:23;;;;;;;84.18;15.80;;;1.00;99.90;;;;;;15200143;23;20542;-37
2023/01/26 18:33:25;;;;;;;104.60;16.67;;;1.00;99.90;;;;;;15203645;23;20037;-37
2023/01/26 18:39:27;;;;;;;142.18;17.33;;;1.00;99.90;;;;;;15197761;23;20018;-37
2023/01/26 18:45:29;;;;;;;124.93;15.95;;;0.90;99.90;;;;;;15203288;23;20355;-37
2023/01/26 18:51:35;;;;;;;110.53;16.42;;;1.00;99.90;;;;;;15198223;23;20438;-38
2023/01/26 18:57:37;;;;;;;154.38;18.50;;;1.00;99.90;;;;;;15178239;23;20022;-37
2023/01/26 19:03:46;;;;;;;181.05;19.52;;;1.00;99.90;;;;;;15201083;23;20076;-37
2023/01/26 19:09:48;;;;;;;79.70;15.55;;;1.00;99.90;;;;;;15199585;23;20026;-37
2023/01/26 19:15:50;;;;;;;73.53;19.27;;;1.00;99.90;;;;;;15198064;23;20096;-38
2023/01/26 19:21:52;;;;;;;85.00;19.65;;;1.10;99.90;;;;;;15203226;23;20022;-37
2023/01/26 19:27:54;;;;;;;69.90;17.23;;;1.30;99.90;;;;;;15202927;23;20057;-36
2023/01/26 19:33:58;;;;;;;77.85;20.67;;;1.40;99.90;;;;;;15198451;23;20051;-37
2023/01/26 19:40:00;;;;;;;66.93;16.77;;;1.50;99.90;;;;;;15177330;23;20030;-37
2023/01/26 19:46:04;;;;;;;99.28;20.73;;;1.50;99.90;;;;;;15200914;23;20045;-37
2023/01/26 19:52:06;;;;;;;85.13;20.75;;;1.40;99.90;;;;;;15200818;23;20477;-37
2023/01/26 19:58:09;;;;;;;75.05;21.42;;;1.50;99.90;;;;;;15175598;23;20129;-37
2023/01/26 20:04:13;;;;;;;83.80;23.35;;;1.70;99.90;;;;;;15190581;23;20025;-37
2023/01/26 20:10:15;;;;;;;80.87;22.17;;;1.70;99.90;;;;;;15202732;23;20022;-37
2023/01/26 20:16:17;;;;;;;75.45;20.70;;;1.70;99.90;;;;;;15200777;23;20018;-38
2023/01/26 20:22:19;;;;;;;77.50;20.33;;;1.70;99.90;;;;;;15201266;23;20579;-37
2023/01/26 20:28:21;;;;;;;64.85;20.25;;;1.70;99.90;;;;;;15202681;23;20104;-36
2023/01/26 20:34:23;;;;;;;70.38;19.60;;;1.80;99.90;;;;;;15197078;23;20108;-37
2023/01/26 20:40:25;;;;;;;74.03;19.48;;;1.80;99.90;;;;;;15199551;23;20149;-37
2023/01/26 20:46:45;;;;;;;55.10;18.08;;;1.70;99.90;;;;;;15196671;23;20154;-37
2023/01/26 20:52:47;;;;;;;70.75;20.25;;;1.60;99.90;;;;;;15170377;23;20526;-37
2023/01/26 20:58:51;;;;;;;64.00;19.73;;;1.60;99.90;;;;;;15201269;23;20021;-37
2023/01/26 21:04:53;;;;;;;60.35;18.25;;;1.50;99.90;;;;;;15196339;23;20109;-37
2023/01/26 21:10:55;;;;;;;78.72;22.30;;;1.50;99.90;;;;;;15200752;23;20455;-37
2023/01/26 21:16:58;;;;;;;81.55;23.08;;;1.70;99.90;;;;;;15200122;23;20022;-37
2023/01/26 21:23:00;;;;;;;75.13;23.08;;;1.80;99.90;;;;;;15200902;23;20057;-37
2023/01/26 21:29:02;;;;;;;92.95;22.73;;;1.80;99.90;;;;;;15201735;23;20030;-37
2023/01/26 21:35:04;;;;;;;84.78;20.92;;;1.80;99.90;;;;;;15196932;23;20108;-37
2023/01/26 21:47:32;;;;;;;43.72;12.65;;;1.60;99.90;;;;;;15201071;23;20022;-37
2023/01/26 21:53:34;;;;;;;49.35;14.05;;;1.40;99.90;;;;;;15196324;23;20030;-37
2023/01/26 21:59:36;;;;;;;52.50;13.80;;;1.40;99.90;;;;;;15201843;23;20022;-36
2023/01/26 22:05:38;;;;;;;59.65;15.63;;;1.50;99.90;;;;;;15196530;23;20104;-37
2023/01/26 22:11:40;;;;;;;61.08;15.68;;;1.50;99.90;;;;;;15199678;23;20022;-37
2023/01/26 22:17:42;;;;;;;60.85;15.52;;;1.40;99.90;;;;;;15206004;23;20026;-36
2023/01/26 22:23:45;;;;;;;50.83;15.57;;;1.40;99.90;;;;;;15204394;23;20078;-36
2023/01/26 22:29:47;;;;;;;53.80;15.05;;;1.40;99.90;;;;;;15204581;23;20030;-36
2023/01/26 22:35:49;;;;;;;56.05;16.10;;;1.40;99.90;;;;;;15177721;23;20125;-37
2023/01/26 22:41:50;;;;;;;57.53;15.13;;;1.40;99.90;;;;;;15201393;23;20018;-36
2023/01/26 22:47:52;;;;;;;62.45;17.35;;;1.40;99.90;;;;;;15198476;23;20033;-36
2023/01/26 22:53:56;;;;;;;58.58;17.20;;;1.40;99.90;;;;;;15193778;23;20108;-36
2023/01/26 22:59:58;;;;;;;53.22;16.80;;;1.50;99.90;;;;;;15203445;23;20022;-36
2023/01/26 23:06:01;;;;;;;70.03;16.67;;;1.60;99.90;;;;;;15199316;23;20025;-36
2023/01/26 23:12:03;;;;;;;57.00;16.08;;;1.60;99.90;;;;;;15179401;23;20021;-37
2023/01/26 23:18:05;;;;;;;60.15;16.25;;;1.60;99.90;;;;;;15204052;23;20052;-37
2023/01/26 23:24:07;;;;;;;50.10;15.98;;;1.60;99.90;;;;;;15200961;23;20022;-36
2023/01/26 23:30:10;;;;;;;55.30;14.57;;;1.60;99.90;;;;;;15201452;23;20022;-36
2023/01/26 23:36:13;;;;;;;42.50;12.75;;;1.70;99.90;;;;;;15201016;23;20032;-37
2023/01/26 23:42:15;;;;;;;36.88;12.60;;;1.70;99.90;;;;;;15200801;23;20096;-36
2023/01/26 23:48:18;;;;;;;35.70;13.80;;;1.70;99.90;;;;;;15192771;23;20129;-36
2023/01/26 23:54:20;;;;;;;36.25;11.68;;;1.70;99.90;;;;;;15192448;23;20615;-37
